createdAt,value
2017-05-28T00:00:27.166Z,1016.2
2017-05-28T00:01:39.711Z,1016.18
2017-05-28T00:02:52.235Z,1016.2
2017-05-28T00:04:03.876Z,1016.2
2017-05-28T00:05:15.450Z,1016.2
2017-05-28T00:06:26.797Z,1016.18
2017-05-28T00:07:39.336Z,1016.2
2017-05-28T00:08:51.861Z,1016.17
2017-05-28T00:10:04.406Z,1016.1
2017-05-28T00:11:16.921Z,1016.13
2017-05-28T00:12:29.169Z,1016.09
2017-05-28T00:13:41.415Z,1016.1
2017-05-28T00:14:53.943Z,1016.09
2017-05-28T00:16:05.889Z,1016.07
2017-05-28T00:17:18.141Z,1016.06
2017-05-28T00:18:30.656Z,1016.02
2017-05-28T00:19:43.180Z,1016.03
2017-05-28T00:20:55.718Z,1016
2017-05-28T00:22:08.257Z,1016.03
2017-05-28T00:23:20.163Z,1016.03
2017-05-28T00:24:32.703Z,1015.97
2017-05-28T00:25:44.627Z,1016.03
2017-05-28T00:26:57.241Z,1016
2017-05-28T00:28:09.473Z,1016
2017-05-28T00:29:21.718Z,1016.02
2017-05-28T00:30:34.265Z,1015.99
2017-05-28T00:31:46.212Z,1016
2017-05-28T00:32:58.727Z,1015.96
2017-05-28T00:34:11.251Z,1015.96
2017-05-28T00:35:23.186Z,1015.93
2017-05-28T00:36:35.736Z,1015.93
2017-05-28T00:37:47.937Z,1015.89
2017-05-28T00:39:00.463Z,1015.92
2017-05-28T00:40:12.685Z,1015.89
2017-05-28T00:41:24.628Z,1015.88
2017-05-28T00:42:37.170Z,1015.9
2017-05-28T00:43:49.711Z,1015.89
2017-05-28T00:45:01.658Z,1015.88
2017-05-28T00:46:13.904Z,1015.9
2017-05-28T00:47:26.459Z,1015.92
2017-05-28T00:48:38.704Z,1015.9
2017-05-28T00:49:51.264Z,1015.89
2017-05-28T00:51:03.495Z,1015.88
2017-05-28T00:52:15.740Z,1015.84
2017-05-28T00:53:28.288Z,1015.85
2017-05-28T00:54:40.839Z,1015.83
2017-05-28T00:55:53.350Z,1015.85
2017-05-28T00:57:05.874Z,1015.86
2017-05-28T00:58:17.820Z,1015.84
2017-05-28T00:59:30.343Z,1015.81
2017-05-28T01:00:42.887Z,1015.79
2017-05-28T01:01:55.426Z,1015.79
2017-05-28T01:03:07.671Z,1015.77
2017-05-28T01:04:19.900Z,1015.75
2017-05-28T01:05:31.835Z,1015.82
2017-05-28T01:06:44.055Z,1015.81
2017-05-28T01:07:56.584Z,1015.81
2017-05-28T01:09:08.538Z,1015.84
2017-05-28T01:10:21.059Z,1015.81
2017-05-28T01:11:33.297Z,1015.78
2017-05-28T01:12:45.838Z,1015.83
2017-05-28T01:13:57.768Z,1015.77
2017-05-28T01:15:10.010Z,1015.82
2017-05-28T01:16:21.930Z,1015.81
2017-05-28T01:17:33.848Z,1015.83
2017-05-28T01:18:45.806Z,1015.81
2017-05-28T01:19:58.394Z,1015.79
2017-05-28T01:21:11.143Z,1015.73
2017-05-28T01:22:23.664Z,1015.69
2017-05-28T01:23:36.210Z,1015.71
2017-05-28T01:24:48.476Z,1015.7
2017-05-28T01:26:01.008Z,1015.66
2017-05-28T01:27:13.544Z,1015.65
2017-05-28T01:28:25.787Z,1015.67
2017-05-28T01:29:38.315Z,1015.62
2017-05-28T01:30:50.278Z,1015.7
2017-05-28T01:32:02.807Z,1015.62
2017-05-28T01:33:14.730Z,1015.62
2017-05-28T01:34:27.272Z,1015.67
2017-05-28T01:35:39.220Z,1015.64
2017-05-28T01:36:51.482Z,1015.63
2017-05-28T01:38:04.028Z,1015.64
2017-05-28T01:39:16.238Z,1015.58
2017-05-28T01:40:28.752Z,1015.61
2017-05-28T01:41:41.049Z,1015.59
2017-05-28T01:42:53.572Z,1015.61
2017-05-28T01:44:06.087Z,1015.63
2017-05-28T01:45:18.638Z,1015.59
2017-05-28T01:46:31.159Z,1015.61
2017-05-28T01:47:43.690Z,1015.59
2017-05-28T01:48:55.916Z,1015.58
2017-05-28T01:50:07.841Z,1015.58
2017-05-28T01:51:20.067Z,1015.55
2017-05-28T01:52:32.287Z,1015.56
2017-05-28T01:53:43.934Z,1015.56
2017-05-28T01:54:56.474Z,1015.57
2017-05-28T01:56:08.696Z,1015.51
2017-05-28T01:57:20.942Z,1015.5
2017-05-28T01:58:33.469Z,1015.48
2017-05-28T01:59:46.013Z,1015.46
2017-05-28T02:00:58.554Z,1015.44
2017-05-28T02:02:10.504Z,1015.51
2017-05-28T02:03:22.747Z,1015.47
2017-05-28T02:04:35.521Z,1015.51
2017-05-28T02:05:48.063Z,1015.47
2017-05-28T02:07:00.613Z,1015.49
2017-05-28T02:08:12.859Z,1015.47
2017-05-28T02:09:25.375Z,1015.48
2017-05-28T02:10:37.623Z,1015.43
2017-05-28T02:11:50.146Z,1015.38
2017-05-28T02:13:02.391Z,1015.4
2017-05-28T02:14:14.614Z,1015.4
2017-05-28T02:15:26.255Z,1015.39
2017-05-28T02:16:38.510Z,1015.41
2017-05-28T02:17:51.032Z,1015.4
2017-05-28T02:19:03.572Z,1015.43
2017-05-28T02:20:15.816Z,1015.4
2017-05-28T02:21:28.055Z,1015.45
2017-05-28T02:22:40.626Z,1015.42
2017-05-28T02:23:53.158Z,1015.41
2017-05-28T02:25:05.702Z,1015.41
2017-05-28T02:26:18.224Z,1015.41
2017-05-28T02:27:30.767Z,1015.44
2017-05-28T02:28:43.339Z,1015.43
2017-05-28T02:29:55.606Z,1015.43
2017-05-28T02:31:07.868Z,1015.45
2017-05-28T02:32:19.795Z,1015.44
2017-05-28T02:33:32.048Z,1015.39
2017-05-28T02:34:44.583Z,1015.41
2017-05-28T02:35:56.820Z,1015.4
2017-05-28T02:37:09.360Z,1015.41
2017-05-28T02:38:21.634Z,1015.42
2017-05-28T02:39:34.166Z,1015.32
2017-05-28T02:40:46.698Z,1015.35
2017-05-28T02:41:58.668Z,1015.35
2017-05-28T02:43:11.189Z,1015.35
2017-05-28T02:44:23.437Z,1015.35
2017-05-28T02:45:35.652Z,1015.28
2017-05-28T02:46:47.901Z,1015.32
2017-05-28T02:48:00.123Z,1015.3
2017-05-28T02:49:12.095Z,1015.3
2017-05-28T02:50:24.658Z,1015.32
2017-05-28T02:51:36.908Z,1015.32
2017-05-28T02:52:49.157Z,1015.26
2017-05-28T02:54:01.392Z,1015.31
2017-05-28T02:55:13.899Z,1015.3
2017-05-28T02:56:26.442Z,1015.24
2017-05-28T02:57:38.063Z,1015.26
2017-05-28T02:58:50.889Z,1015.25
2017-05-28T03:00:03.407Z,1015.23
2017-05-28T03:01:15.656Z,1015.23
2017-05-28T03:02:28.189Z,1015.25
2017-05-28T03:03:40.696Z,1015.23
2017-05-28T03:04:52.956Z,1015.22
2017-05-28T03:06:05.190Z,1015.26
2017-05-28T03:07:17.734Z,1015.25
2017-05-28T03:08:29.980Z,1015.3
2017-05-28T03:09:42.526Z,1015.31
2017-05-28T03:10:55.048Z,1015.31
2017-05-28T03:12:07.562Z,1015.29
2017-05-28T03:13:19.860Z,1015.28
2017-05-28T03:14:32.398Z,1015.28
2017-05-28T03:15:44.905Z,1015.31
2017-05-28T03:16:57.501Z,1015.31
2017-05-28T03:18:10.010Z,1015.35
2017-05-28T03:19:22.515Z,1015.31
2017-05-28T03:20:35.030Z,1015.28
2017-05-28T03:21:47.589Z,1015.27
2017-05-28T03:23:00.127Z,1015.23
2017-05-28T03:24:12.676Z,1015.25
2017-05-28T03:25:25.198Z,1015.28
2017-05-28T03:26:37.740Z,1015.3
2017-05-28T03:27:50.289Z,1015.31
2017-05-28T03:29:02.538Z,1015.33
2017-05-28T03:30:15.096Z,1015.4
2017-05-28T03:31:27.623Z,1015.35
2017-05-28T03:32:39.619Z,1015.33
2017-05-28T03:33:52.141Z,1015.3
2017-05-28T03:35:04.053Z,1015.3
2017-05-28T03:36:15.985Z,1015.28
2017-05-28T03:37:28.506Z,1015.29
2017-05-28T03:38:40.702Z,1015.27
2017-05-28T03:39:53.248Z,1015.24
2017-05-28T03:41:05.508Z,1015.26
2017-05-28T03:42:17.405Z,1015.23
2017-05-28T03:43:29.635Z,1015.22
2017-05-28T03:44:42.185Z,1015.23
2017-05-28T03:45:54.451Z,1015.21
2017-05-28T03:47:06.653Z,1015.22
2017-05-28T03:48:18.583Z,1015.24
2017-05-28T03:49:30.793Z,1015.24
2017-05-28T03:50:43.034Z,1015.18
2017-05-28T03:51:54.957Z,1015.17
2017-05-28T03:53:07.500Z,1015.15
2017-05-28T03:54:20.050Z,1015.18
2017-05-28T03:55:32.594Z,1015.13
2017-05-28T03:56:45.112Z,1015.15
2017-05-28T03:57:57.642Z,1015.13
2017-05-28T03:59:09.879Z,1015.08
2017-05-28T04:00:22.380Z,1015.07
2017-05-28T04:01:34.296Z,1015.08
2017-05-28T04:02:46.821Z,1015.11
2017-05-28T04:03:59.314Z,1015.11
2017-05-28T04:05:11.552Z,1015.09
2017-05-28T04:06:24.101Z,1015.08
2017-05-28T04:07:36.348Z,1015.06
2017-05-28T04:08:48.900Z,1015.06
2017-05-28T04:10:01.447Z,1015.02
2017-05-28T04:11:13.067Z,1015.06
2017-05-28T04:12:25.605Z,1015.05
2017-05-28T04:13:38.131Z,1015.11
2017-05-28T04:14:50.654Z,1015.16
2017-05-28T04:16:02.597Z,1015.1
2017-05-28T04:17:14.820Z,1015.11
2017-05-28T04:18:26.742Z,1015.17
2017-05-28T04:19:39.330Z,1015.14
2017-05-28T04:20:51.883Z,1015.14
2017-05-28T04:22:04.106Z,1015.11
2017-05-28T04:23:16.648Z,1015.13
2017-05-28T04:24:29.177Z,1015.13
2017-05-28T04:25:41.407Z,1015.16
2017-05-28T04:26:53.936Z,1015.13
2017-05-28T04:28:05.861Z,1015.12
2017-05-28T04:29:18.422Z,1015.11
2017-05-28T04:30:30.947Z,1015.08
2017-05-28T04:31:43.494Z,1015.04
2017-05-28T04:32:56.043Z,1015.05
2017-05-28T04:34:08.264Z,1015.09
2017-05-28T04:35:20.207Z,1015.05
2017-05-28T04:36:33.073Z,1015.1
2017-05-28T04:37:45.605Z,1015.09
2017-05-28T04:38:57.861Z,1015.16
2017-05-28T04:40:10.386Z,1015.1
2017-05-28T04:41:22.061Z,1015.14
2017-05-28T04:42:34.307Z,1015.1
2017-05-28T04:43:46.833Z,1015.06
2017-05-28T04:44:59.077Z,1015.08
2017-05-28T04:46:11.320Z,1015.07
2017-05-28T04:47:24.144Z,1015.03
2017-05-28T04:48:36.661Z,1015.07
2017-05-28T04:49:48.307Z,1015.06
2017-05-28T04:51:00.860Z,1015.07
2017-05-28T04:52:12.799Z,1015.05
2017-05-28T04:53:24.751Z,1015.03
2017-05-28T04:54:36.695Z,1015.02
2017-05-28T04:55:49.233Z,1014.98
2017-05-28T04:57:01.464Z,1015.04
2017-05-28T04:58:14.255Z,1015
2017-05-28T04:59:26.450Z,1015
2017-05-28T05:00:38.668Z,1015
2017-05-28T05:01:51.168Z,1014.94
2017-05-28T05:03:03.470Z,1014.96
2017-05-28T05:04:16.013Z,1014.94
2017-05-28T05:05:28.247Z,1014.93
2017-05-28T05:06:40.182Z,1014.97
2017-05-28T05:07:51.796Z,1014.89
2017-05-28T05:09:04.060Z,1014.96
2017-05-28T05:10:16.594Z,1014.94
2017-05-28T05:11:28.584Z,1014.96
2017-05-28T05:12:39.934Z,1014.95
2017-05-28T05:13:52.506Z,1014.95
2017-05-28T05:15:05.075Z,1014.96
2017-05-28T05:16:17.010Z,1014.94
2017-05-28T05:17:29.543Z,1014.96
2017-05-28T05:18:42.065Z,1014.97
2017-05-28T05:19:54.873Z,1014.97
2017-05-28T05:21:07.393Z,1014.97
2017-05-28T05:22:19.615Z,1015.03
2017-05-28T05:23:32.141Z,1014.98
2017-05-28T05:24:44.693Z,1015.08
2017-05-28T05:25:56.913Z,1015.05
2017-05-28T05:27:08.885Z,1015.01
2017-05-28T05:28:21.445Z,1015.01
2017-05-28T05:29:33.695Z,1014.99
2017-05-28T05:30:45.945Z,1014.97
2017-05-28T05:31:58.190Z,1014.99
2017-05-28T05:33:10.707Z,1015.02
2017-05-28T05:34:23.236Z,1015.01
2017-05-28T05:35:35.779Z,1014.98
2017-05-28T05:36:48.296Z,1015.01
2017-05-28T05:38:00.810Z,1015
2017-05-28T05:39:13.058Z,1015.05
2017-05-28T05:40:25.589Z,1015.07
2017-05-28T05:41:37.808Z,1015.05
2017-05-28T05:42:50.003Z,1015.08
2017-05-28T05:44:02.229Z,1015.03
2017-05-28T05:45:14.170Z,1015.1
2017-05-28T05:46:26.487Z,1015.09
2017-05-28T05:47:39.040Z,1015.08
2017-05-28T05:48:51.557Z,1015.14
2017-05-28T05:50:03.807Z,1015.15
2017-05-28T05:51:15.454Z,1015.19
2017-05-28T05:52:27.993Z,1015.17
2017-05-28T05:53:40.542Z,1015.12
2017-05-28T05:54:52.805Z,1015.14
2017-05-28T05:56:05.334Z,1015.16
2017-05-28T05:57:17.581Z,1015.15
2017-05-28T05:58:29.207Z,1015.15
2017-05-28T05:59:41.426Z,1015.18
2017-05-28T06:00:53.976Z,1015.21
2017-05-28T06:02:05.618Z,1015.21
2017-05-28T06:03:18.138Z,1015.2
2017-05-28T06:04:29.784Z,1015.21
2017-05-28T06:05:42.305Z,1015.23
2017-05-28T06:06:54.542Z,1015.23
2017-05-28T06:08:06.808Z,1015.21
2017-05-28T06:09:19.039Z,1015.27
2017-05-28T06:10:31.262Z,1015.27
2017-05-28T06:11:43.789Z,1015.25
2017-05-28T06:12:55.731Z,1015.32
2017-05-28T06:14:08.289Z,1015.59
2017-05-28T06:15:20.226Z,1015.65
2017-05-28T06:16:32.456Z,1015.6
2017-05-28T06:17:44.682Z,1015.25
2017-05-28T06:18:56.606Z,1015.2
2017-05-28T06:20:09.156Z,1015.31
2017-05-28T06:21:21.421Z,1015.46
2017-05-28T06:22:33.066Z,1015.41
2017-05-28T06:23:45.633Z,1015.34
2017-05-28T06:24:58.168Z,1015.37
2017-05-28T06:26:10.103Z,1015.48
2017-05-28T06:27:22.055Z,1015.32
2017-05-28T06:28:34.598Z,1015.43
2017-05-28T06:29:47.123Z,1015.7
2017-05-28T06:30:59.365Z,1015.47
2017-05-28T06:32:11.313Z,1015.3
2017-05-28T06:33:23.553Z,1015.33
2017-05-28T06:34:35.786Z,1016.02
2017-05-28T06:35:48.005Z,1015.65
2017-05-28T06:37:00.570Z,1015.64
2017-05-28T06:38:12.809Z,1015.84
2017-05-28T06:39:25.337Z,1015.8
2017-05-28T06:40:37.886Z,1015.78
2017-05-28T06:41:49.810Z,1015.87
2017-05-28T06:43:02.355Z,1015.78
2017-05-28T06:44:14.873Z,1015.83
2017-05-28T06:45:27.162Z,1015.7
2017-05-28T06:46:39.412Z,1015.72
2017-05-28T06:47:51.636Z,1015.69
2017-05-28T06:49:03.879Z,1015.73
2017-05-28T06:50:15.825Z,1015.79
2017-05-28T06:51:28.089Z,1015.82
2017-05-28T06:52:40.342Z,1015.79
2017-05-28T06:53:52.904Z,1015.75
2017-05-28T06:55:04.836Z,1015.75
2017-05-28T06:56:17.088Z,1015.72
2017-05-28T06:57:29.903Z,1015.74
2017-05-28T06:58:42.438Z,1015.74
2017-05-28T06:59:54.984Z,1015.69
2017-05-28T07:01:06.638Z,1015.66
2017-05-28T07:02:18.885Z,1015.65
2017-05-28T07:03:31.422Z,1015.48
2017-05-28T07:04:43.647Z,1015.36
2017-05-28T07:05:56.175Z,1015.33
2017-05-28T07:07:08.742Z,1015.28
2017-05-28T07:08:21.266Z,1015.25
2017-05-28T07:09:33.854Z,1015.17
2017-05-28T07:10:46.098Z,1015.17
2017-05-28T07:11:58.644Z,1015.16
2017-05-28T07:13:10.893Z,1015.13
2017-05-28T07:14:22.846Z,1015.13
2017-05-28T07:15:35.410Z,1015.07
2017-05-28T07:16:47.952Z,1015.04
2017-05-28T07:18:00.510Z,1015.02
2017-05-28T07:19:12.771Z,1014.94
2017-05-28T07:20:25.348Z,1014.93
2017-05-28T07:21:37.599Z,1014.91
2017-05-28T07:22:50.164Z,1014.89
2017-05-28T07:24:02.411Z,1014.89
2017-05-28T07:25:14.951Z,1014.91
2017-05-28T07:26:27.198Z,1014.9
2017-05-28T07:27:39.475Z,1014.87
2017-05-28T07:28:51.447Z,1014.92
2017-05-28T07:30:04.310Z,1014.9
2017-05-28T07:31:16.265Z,1014.89
2017-05-28T07:32:28.528Z,1014.87
2017-05-28T07:33:40.795Z,1014.88
2017-05-28T07:34:53.049Z,1014.91
2017-05-28T07:36:05.676Z,1014.9
2017-05-28T07:37:17.942Z,1014.82
2017-05-28T07:38:30.483Z,1014.85
2017-05-28T07:39:43.062Z,1014.81
2017-05-28T07:40:55.629Z,1014.79
2017-05-28T07:42:08.176Z,1014.8
2017-05-28T07:43:20.765Z,1014.75
2017-05-28T07:44:33.341Z,1014.76
2017-05-28T07:45:45.286Z,1014.72
2017-05-28T07:46:56.911Z,1014.72
2017-05-28T07:48:09.182Z,1014.7
2017-05-28T07:49:21.750Z,1014.68
2017-05-28T07:50:34.326Z,1014.65
2017-05-28T07:51:46.591Z,1014.66
2017-05-28T07:52:59.143Z,1014.69
2017-05-28T07:54:11.409Z,1014.64
2017-05-28T07:55:23.700Z,1014.65
2017-05-28T07:56:36.275Z,1014.66
2017-05-28T07:57:48.548Z,1014.69
2017-05-28T07:59:00.792Z,1014.56
2017-05-28T08:00:12.738Z,1014.58
2017-05-28T08:01:24.760Z,1014.56
2017-05-28T08:02:37.583Z,1014.58
2017-05-28T08:03:49.850Z,1014.61
2017-05-28T08:05:02.106Z,1014.6
2017-05-28T08:06:14.375Z,1014.59
2017-05-28T08:07:26.336Z,1014.58
2017-05-28T08:08:38.910Z,1014.57
2017-05-28T08:09:51.459Z,1014.61
2017-05-28T08:11:04.028Z,1014.63
2017-05-28T08:12:16.300Z,1014.6
2017-05-28T08:13:28.618Z,1014.62
2017-05-28T08:14:41.185Z,1014.61
2017-05-28T08:15:53.441Z,1014.63
2017-05-28T08:17:06.030Z,1014.59
2017-05-28T08:18:17.080Z,1014.59
2017-05-28T08:19:29.652Z,1014.56
2017-05-28T08:20:41.922Z,1014.52
2017-05-28T08:21:54.496Z,1014.51
2017-05-28T08:23:06.456Z,1014.5
2017-05-28T08:24:19.034Z,1014.45
2017-05-28T08:25:31.602Z,1014.47
2017-05-28T08:26:44.153Z,1014.42
2017-05-28T08:27:56.719Z,1014.47
2017-05-28T08:29:09.272Z,1014.42
2017-05-28T08:30:21.858Z,1014.46
2017-05-28T08:31:34.160Z,1014.49
2017-05-28T08:32:46.710Z,1014.47
2017-05-28T08:33:59.302Z,1014.47
2017-05-28T08:35:11.798Z,1014.45
2017-05-28T08:36:24.068Z,1014.52
2017-05-28T08:37:36.664Z,1014.43
2017-05-28T08:38:49.232Z,1014.41
2017-05-28T08:40:01.808Z,1014.46
2017-05-28T08:41:14.677Z,1014.45
2017-05-28T08:42:26.946Z,1014.41
2017-05-28T08:43:38.922Z,1014.39
2017-05-28T08:44:51.169Z,1014.37
2017-05-28T08:46:03.715Z,1014.41
2017-05-28T08:47:16.303Z,1014.42
2017-05-28T08:48:28.570Z,1014.35
2017-05-28T08:49:40.844Z,1014.41
2017-05-28T08:50:53.122Z,1014.41
2017-05-28T08:52:05.711Z,1014.41
2017-05-28T08:53:17.387Z,1014.42
2017-05-28T08:54:29.957Z,1014.4
2017-05-28T08:55:41.947Z,1014.38
2017-05-28T08:56:54.199Z,1014.35
2017-05-28T08:58:06.787Z,1014.29
2017-05-28T08:59:19.363Z,1014.24
2017-05-28T09:00:31.913Z,1014.18
2017-05-28T09:01:44.471Z,1014.2
2017-05-28T09:02:56.732Z,1014.2
2017-05-28T09:04:09.312Z,1014.22
2017-05-28T09:05:21.894Z,1014.25
2017-05-28T09:06:34.438Z,1014.24
2017-05-28T09:07:46.712Z,1014.2
2017-05-28T09:08:58.957Z,1014.19
2017-05-28T09:10:11.229Z,1014.14
2017-05-28T09:11:23.514Z,1014.1
2017-05-28T09:12:35.747Z,1014.15
2017-05-28T09:13:48.314Z,1014.13
2017-05-28T09:15:00.584Z,1014.13
2017-05-28T09:16:13.159Z,1014.13
2017-05-28T09:17:25.732Z,1014.07
2017-05-28T09:18:37.927Z,1014.11
2017-05-28T09:19:50.243Z,1014.11
2017-05-28T09:21:02.818Z,1014.14
2017-05-28T09:22:15.386Z,1014.23
2017-05-28T09:23:27.352Z,1014.2
2017-05-28T09:24:39.930Z,1014.21
2017-05-28T09:25:52.504Z,1014.18
2017-05-28T09:27:04.443Z,1014.09
2017-05-28T09:28:16.092Z,1014.12
2017-05-28T09:29:28.365Z,1014.08
2017-05-28T09:30:40.906Z,1014.13
2017-05-28T09:31:52.577Z,1014.01
2017-05-28T09:33:05.203Z,1014.03
2017-05-28T09:34:17.444Z,1014.03
2017-05-28T09:35:29.700Z,1014.02
2017-05-28T09:36:42.261Z,1014.04
2017-05-28T09:37:54.234Z,1013.99
2017-05-28T09:39:06.503Z,1013.92
2017-05-28T09:40:19.031Z,1013.83
2017-05-28T09:41:31.602Z,1013.89
2017-05-28T09:42:44.170Z,1013.9
2017-05-28T09:43:56.436Z,1013.96
2017-05-28T09:45:08.985Z,1013.97
2017-05-28T09:46:21.254Z,1013.98
2017-05-28T09:47:33.826Z,1013.95
2017-05-28T09:48:46.413Z,1013.9
2017-05-28T09:49:58.691Z,1013.9
2017-05-28T09:51:10.933Z,1013.88
2017-05-28T09:52:23.512Z,1013.92
2017-05-28T09:53:36.082Z,1013.91
2017-05-28T09:54:48.353Z,1013.82
2017-05-28T09:56:00.925Z,1013.84
2017-05-28T09:57:13.494Z,1013.92
2017-05-28T09:58:25.784Z,1013.85
2017-05-28T09:59:38.036Z,1013.78
2017-05-28T10:00:50.286Z,1013.83
2017-05-28T10:02:03.118Z,1013.75
2017-05-28T10:03:15.364Z,1013.75
2017-05-28T10:04:27.934Z,1013.75
2017-05-28T10:05:40.467Z,1013.74
2017-05-28T10:06:52.762Z,1013.76
2017-05-28T10:08:05.330Z,1013.69
2017-05-28T10:09:17.906Z,1013.65
2017-05-28T10:10:30.472Z,1013.65
2017-05-28T10:11:43.022Z,1013.64
2017-05-28T10:12:55.612Z,1013.6
2017-05-28T10:14:07.864Z,1013.59
2017-05-28T10:15:19.837Z,1013.59
2017-05-28T10:16:31.484Z,1013.55
2017-05-28T10:17:44.051Z,1013.57
2017-05-28T10:18:56.014Z,1013.62
2017-05-28T10:20:07.989Z,1013.59
2017-05-28T10:21:20.560Z,1013.61
2017-05-28T10:22:32.810Z,1013.56
2017-05-28T10:23:45.697Z,1013.54
2017-05-28T10:24:57.999Z,1013.51
2017-05-28T10:26:09.672Z,1013.48
2017-05-28T10:27:21.944Z,1013.46
2017-05-28T10:28:34.185Z,1013.36
2017-05-28T10:29:46.433Z,1013.38
2017-05-28T10:30:58.785Z,1013.28
2017-05-28T10:32:11.074Z,1013.33
2017-05-28T10:33:23.344Z,1013.33
2017-05-28T10:34:35.915Z,1013.38
2017-05-28T10:35:48.482Z,1013.4
2017-05-28T10:37:01.049Z,1013.33
2017-05-28T10:38:13.024Z,1013.34
2017-05-28T10:39:25.316Z,1013.35
2017-05-28T10:40:37.547Z,1013.35
2017-05-28T10:41:50.116Z,1013.37
2017-05-28T10:43:02.715Z,1013.38
2017-05-28T10:44:15.012Z,1013.46
2017-05-28T10:45:27.556Z,1013.38
2017-05-28T10:46:40.123Z,1013.43
2017-05-28T10:47:52.374Z,1013.4
2017-05-28T10:49:04.346Z,1013.41
2017-05-28T10:50:16.628Z,1013.39
2017-05-28T10:51:28.882Z,1013.38
2017-05-28T10:52:41.462Z,1013.37
2017-05-28T10:53:54.048Z,1013.37
2017-05-28T10:55:06.287Z,1013.31
2017-05-28T10:56:18.616Z,1013.33
2017-05-28T10:57:30.542Z,1013.28
2017-05-28T10:58:42.811Z,1013.29
2017-05-28T10:59:55.401Z,1013.28
2017-05-28T11:01:07.693Z,1013.15
2017-05-28T11:02:19.973Z,1013.15
2017-05-28T11:03:32.259Z,1013.11
2017-05-28T11:04:44.834Z,1013.15
2017-05-28T11:05:57.386Z,1013.1
2017-05-28T11:07:09.333Z,1013.12
2017-05-28T11:08:21.605Z,1013.18
2017-05-28T11:09:34.175Z,1013.13
2017-05-28T11:10:46.471Z,1013.2
2017-05-28T11:11:59.042Z,1013.21
2017-05-28T11:13:11.016Z,1013.13
2017-05-28T11:14:23.273Z,1013.13
2017-05-28T11:15:35.547Z,1013.11
2017-05-28T11:16:47.843Z,1013.11
2017-05-28T11:17:59.748Z,1013.14
2017-05-28T11:19:12.018Z,1013.15
2017-05-28T11:20:23.706Z,1013.12
2017-05-28T11:21:36.259Z,1013.14
2017-05-28T11:22:48.843Z,1013.09
2017-05-28T11:24:00.472Z,1013.17
2017-05-28T11:25:13.047Z,1013.12
2017-05-28T11:26:25.291Z,1013.12
2017-05-28T11:27:37.560Z,1013.16
2017-05-28T11:28:50.141Z,1013.09
2017-05-28T11:30:02.107Z,1013.08
2017-05-28T11:31:14.676Z,1013.13
2017-05-28T11:32:26.922Z,1013.2
2017-05-28T11:33:39.511Z,1013.14
2017-05-28T11:34:52.106Z,1013.11
2017-05-28T11:36:04.662Z,1013.15
2017-05-28T11:37:16.931Z,1013.09
2017-05-28T11:38:29.202Z,1013.18
2017-05-28T11:39:41.747Z,1013.17
2017-05-28T11:40:54.021Z,1013.17
2017-05-28T11:42:06.312Z,1013.17
2017-05-28T11:43:18.636Z,1013.19
2017-05-28T11:44:30.929Z,1013.21
2017-05-28T11:45:43.177Z,1013.19
2017-05-28T11:46:55.748Z,1013.16
2017-05-28T11:48:08.019Z,1013.07
2017-05-28T11:49:20.003Z,1013.16
2017-05-28T11:50:32.291Z,1013.18
2017-05-28T11:51:44.854Z,1013.13
2017-05-28T11:52:57.429Z,1013.1
2017-05-28T11:54:09.700Z,1013.1
2017-05-28T11:55:21.970Z,1013.12
2017-05-28T11:56:34.246Z,1012.96
2017-05-28T11:57:46.814Z,1013.1
2017-05-28T11:58:59.371Z,1013.09
2017-05-28T12:00:11.625Z,1013.04
2017-05-28T12:01:23.873Z,1013.06
2017-05-28T12:02:35.245Z,1012.99
2017-05-28T12:03:47.516Z,1012.92
2017-05-28T12:04:59.788Z,1012.92
2017-05-28T12:06:12.363Z,1012.81
2017-05-28T12:07:24.629Z,1012.78
2017-05-28T12:08:36.624Z,1012.72
2017-05-28T12:09:49.209Z,1012.78
2017-05-28T12:11:01.459Z,1012.76
2017-05-28T12:12:14.084Z,1012.74
2017-05-28T12:13:26.037Z,1012.74
2017-05-28T12:14:38.609Z,1012.74
2017-05-28T12:15:50.875Z,1012.68
2017-05-28T12:17:03.144Z,1012.68
2017-05-28T12:18:14.813Z,1012.71
2017-05-28T12:19:27.089Z,1012.68
2017-05-28T12:20:39.659Z,1012.55
2017-05-28T12:21:52.244Z,1012.61
2017-05-28T12:23:05.126Z,1012.54
2017-05-28T12:24:17.398Z,1012.62
2017-05-28T12:25:29.964Z,1012.57
2017-05-28T12:26:42.237Z,1012.51
2017-05-28T12:27:54.502Z,1012.51
2017-05-28T12:29:07.098Z,1012.5
2017-05-28T12:30:19.677Z,1012.46
2017-05-28T12:31:31.965Z,1012.46
2017-05-28T12:32:44.569Z,1012.55
2017-05-28T12:33:57.156Z,1012.5
2017-05-28T12:35:09.432Z,1012.51
2017-05-28T12:36:21.688Z,1012.53
2017-05-28T12:37:34.253Z,1012.47
2017-05-28T12:38:46.819Z,1012.5
2017-05-28T12:39:59.067Z,1012.44
2017-05-28T12:41:11.665Z,1012.4
2017-05-28T12:42:23.914Z,1012.36
2017-05-28T12:43:36.178Z,1012.39
2017-05-28T12:44:49.002Z,1012.39
2017-05-28T12:46:01.575Z,1012.35
2017-05-28T12:47:14.145Z,1012.17
2017-05-28T12:48:26.110Z,1012.22
2017-05-28T12:49:38.080Z,1012.24
2017-05-28T12:50:50.371Z,1012.3
2017-05-28T12:52:02.977Z,1012.3
2017-05-28T12:53:15.249Z,1012.41
2017-05-28T12:54:27.821Z,1012.41
2017-05-28T12:55:40.434Z,1012.37
2017-05-28T12:56:52.983Z,1012.33
2017-05-28T12:58:05.529Z,1012.34
2017-05-28T12:59:17.476Z,1012.32
2017-05-28T13:00:30.042Z,1012.29
2017-05-28T13:01:42.375Z,1012.29
2017-05-28T13:02:54.938Z,1012.29
2017-05-28T13:04:07.526Z,1012.28
2017-05-28T13:05:19.485Z,1012.26
2017-05-28T13:06:32.046Z,1012.21
2017-05-28T13:07:44.626Z,1012.23
2017-05-28T13:08:57.167Z,1012.24
2017-05-28T13:10:09.712Z,1012.22
2017-05-28T13:11:21.688Z,1012.27
2017-05-28T13:12:33.938Z,1012.19
2017-05-28T13:13:46.504Z,1011.99
2017-05-28T13:14:58.774Z,1012.06
2017-05-28T13:16:11.050Z,1012.06
2017-05-28T13:17:23.613Z,1012.03
2017-05-28T13:18:35.859Z,1012.05
2017-05-28T13:19:48.435Z,1012.03
2017-05-28T13:21:00.706Z,1011.95
2017-05-28T13:22:12.980Z,1011.96
2017-05-28T13:23:25.550Z,1011.95
2017-05-28T13:24:37.815Z,1011.96
2017-05-28T13:25:50.365Z,1011.96
2017-05-28T13:27:02.906Z,1011.94
2017-05-28T13:28:15.156Z,1012
2017-05-28T13:29:27.751Z,1011.91
2017-05-28T13:30:40.337Z,1011.92
2017-05-28T13:31:52.874Z,1011.87
2017-05-28T13:33:05.137Z,1011.81
2017-05-28T13:34:17.407Z,1011.79
2017-05-28T13:35:29.680Z,1011.9
2017-05-28T13:36:42.241Z,1011.83
2017-05-28T13:37:54.501Z,1011.75
2017-05-28T13:39:07.340Z,1011.83
2017-05-28T13:40:19.615Z,1011.81
2017-05-28T13:41:31.857Z,1011.79
2017-05-28T13:42:44.420Z,1011.73
2017-05-28T13:43:56.651Z,1011.71
2017-05-28T13:45:09.215Z,1011.71
2017-05-28T13:46:21.171Z,1011.72
2017-05-28T13:47:33.445Z,1011.77
2017-05-28T13:48:46.012Z,1011.69
2017-05-28T13:49:58.284Z,1011.72
2017-05-28T13:51:10.555Z,1011.66
2017-05-28T13:52:23.141Z,1011.63
2017-05-28T13:53:35.417Z,1011.69
2017-05-28T13:54:47.946Z,1011.72
2017-05-28T13:56:00.200Z,1011.69
2017-05-28T13:57:12.157Z,1011.62
2017-05-28T13:58:24.705Z,1011.63
2017-05-28T13:59:37.271Z,1011.58
2017-05-28T14:00:49.796Z,1011.54
2017-05-28T14:02:02.353Z,1011.56
2017-05-28T14:03:14.083Z,1011.5
2017-05-28T14:04:26.347Z,1011.54
2017-05-28T14:05:38.910Z,1011.5
2017-05-28T14:06:51.478Z,1011.43
2017-05-28T14:08:03.421Z,1011.39
2017-05-28T14:09:15.667Z,1011.3
2017-05-28T14:10:28.218Z,1011.34
2017-05-28T14:11:40.796Z,1011.35
2017-05-28T14:12:53.028Z,1011.41
2017-05-28T14:14:05.000Z,1011.33
2017-05-28T14:15:17.262Z,1011.31
2017-05-28T14:16:29.547Z,1011.34
2017-05-28T14:17:42.127Z,1011.39
2017-05-28T14:18:54.705Z,1011.37
2017-05-28T14:20:06.976Z,1011.33
2017-05-28T14:21:19.527Z,1011.34
2017-05-28T14:22:31.497Z,1011.29
2017-05-28T14:23:43.768Z,1011.23
2017-05-28T14:24:56.361Z,1011.4
2017-05-28T14:26:08.606Z,1011.35
2017-05-28T14:27:20.877Z,1011.37
2017-05-28T14:28:32.824Z,1011.36
2017-05-28T14:29:45.096Z,1011.3
2017-05-28T14:30:57.689Z,1011.32
2017-05-28T14:32:09.929Z,1011.3
2017-05-28T14:33:22.160Z,1011.47
2017-05-28T14:34:34.727Z,1011.44
2017-05-28T14:35:47.302Z,1011.45
2017-05-28T14:36:59.872Z,1011.38
2017-05-28T14:38:12.117Z,1011.3